createdAt,value
2023-03-06T00:44:29.401Z,51.10
2023-03-06T00:46:56.120Z,50.90
2023-03-06T00:49:22.835Z,50.70
2023-03-06T00:51:49.558Z,51.20
2023-03-06T00:54:16.390Z,51.10
2023-03-06T00:56:43.126Z,50.90
2023-03-06T00:59:10.960Z,51.20
2023-03-06T01:01:37.725Z,51.20
2023-03-06T01:04:04.774Z,51.20
2023-03-06T01:06:31.539Z,51.40
2023-03-06T01:08:58.261Z,51.20
2023-03-06T01:11:25.097Z,51.40
2023-03-06T01:13:52.178Z,51.30
2023-03-06T01:16:19.419Z,51.60
2023-03-06T01:18:46.633Z,51.40
2023-03-06T01:21:13.857Z,51.40
2023-03-06T01:23:41.022Z,51.90
2023-03-06T01:26:08.165Z,51.30
2023-03-06T01:28:37.383Z,51.60
2023-03-06T01:31:05.442Z,51.40
2023-03-06T01:33:32.354Z,51.40
2023-03-06T01:35:59.246Z,51.50
2023-03-06T01:38:25.963Z,51.40
2023-03-06T01:40:52.681Z,51.10
2023-03-06T01:43:26.865Z,51.10
2023-03-06T01:46:30.873Z,51.60
2023-03-06T01:49:08.995Z,51.30
2023-03-06T01:51:52.797Z,51.30
2023-03-06T01:54:25.195Z,51.40
2023-03-06T01:56:56.796Z,51.30
2023-03-06T01:59:24.846Z,51.50
2023-03-06T02:01:51.654Z,51.40
2023-03-06T02:04:18.849Z,51.60
2023-03-06T02:06:45.880Z,51.30
2023-03-06T02:09:14.114Z,51.50
2023-03-06T02:11:44.092Z,51.50
2023-03-06T02:14:16.325Z,51.60
2023-03-06T02:16:44.084Z,51.20
2023-03-06T02:19:23.956Z,51.30
2023-03-06T02:21:50.836Z,51.30
2023-03-06T02:24:29.603Z,51.10
2023-03-06T02:26:57.999Z,51.10
2023-03-06T02:29:28.568Z,51.70
2023-03-06T02:31:55.976Z,51.10
2023-03-06T02:34:22.592Z,51.20
2023-03-06T02:36:53.046Z,51.00
2023-03-06T02:39:23.523Z,51.10
2023-03-06T02:41:50.293Z,51.30
2023-03-06T02:44:16.955Z,51.10
2023-03-06T02:46:43.683Z,51.10
2023-03-06T02:49:10.386Z,50.90
2023-03-06T02:51:37.090Z,51.20
2023-03-06T02:54:03.901Z,51.00
2023-03-06T02:56:30.621Z,50.90
2023-03-06T02:58:57.338Z,51.20
2023-03-06T03:01:24.114Z,51.10
2023-03-06T03:03:50.799Z,51.10
2023-03-06T03:06:17.519Z,51.30
2023-03-06T03:08:44.247Z,50.70
2023-03-06T03:11:12.138Z,51.40
2023-03-06T03:13:38.929Z,51.20
2023-03-06T03:16:11.062Z,51.30
2023-03-06T03:18:37.889Z,51.30
2023-03-06T03:21:08.719Z,51.20
2023-03-06T03:23:35.526Z,51.30
2023-03-06T03:26:08.458Z,51.10
2023-03-06T03:28:35.177Z,51.00
2023-03-06T03:31:06.470Z,51.10
2023-03-06T03:33:34.123Z,51.30
2023-03-06T03:36:03.184Z,51.30
2023-03-06T03:38:30.703Z,51.30
2023-03-06T03:40:57.448Z,51.40
2023-03-06T03:43:24.166Z,51.50
2023-03-06T03:45:53.224Z,51.50
2023-03-06T03:48:20.912Z,51.60
2023-03-06T03:50:47.668Z,51.40
2023-03-06T03:53:14.403Z,51.80
2023-03-06T03:55:41.160Z,51.60
2023-03-06T03:58:07.867Z,51.80
2023-03-06T04:00:34.807Z,51.70
2023-03-06T04:03:01.922Z,51.40
2023-03-06T04:05:28.723Z,51.80
2023-03-06T04:07:55.550Z,51.50
2023-03-06T04:10:22.231Z,51.80
2023-03-06T04:12:48.987Z,51.90
2023-03-06T04:15:15.782Z,51.70
2023-03-06T04:17:42.494Z,51.60
2023-03-06T04:20:10.002Z,51.60
2023-03-06T04:22:36.698Z,51.70
2023-03-06T04:25:03.536Z,51.80
2023-03-06T04:27:30.330Z,51.70
2023-03-06T04:29:57.015Z,51.60
2023-03-06T04:32:24.270Z,51.70
2023-03-06T04:34:51.183Z,51.50
2023-03-06T04:37:24.053Z,51.50
2023-03-06T04:39:51.377Z,51.50
2023-03-06T04:42:18.608Z,51.70
2023-03-06T04:44:45.729Z,51.40
2023-03-06T04:47:13.178Z,51.30
2023-03-06T04:49:39.929Z,52.00
2023-03-06T04:52:07.388Z,51.30
2023-03-06T04:54:34.098Z,51.50
2023-03-06T04:57:00.866Z,51.50
2023-03-06T04:59:27.891Z,51.50
2023-03-06T05:01:55.852Z,51.30
2023-03-06T05:04:22.596Z,51.30
2023-03-06T05:06:49.663Z,51.30
2023-03-06T05:09:16.791Z,51.30
2023-03-06T05:11:43.456Z,51.30
2023-03-06T05:14:10.200Z,51.10
2023-03-06T05:16:36.952Z,51.10
2023-03-06T05:19:03.722Z,51.20
2023-03-06T05:21:30.420Z,51.20
2023-03-06T05:23:57.190Z,51.20
2023-03-06T05:26:23.877Z,51.00
2023-03-06T05:28:50.685Z,50.80
2023-03-06T05:31:17.421Z,50.70
2023-03-06T05:33:44.204Z,50.60
2023-03-06T05:36:10.935Z,50.80
2023-03-06T05:38:37.680Z,50.60
2023-03-06T05:41:04.614Z,50.80
2023-03-06T05:43:31.367Z,50.60
2023-03-06T05:46:03.216Z,50.50
2023-03-06T05:48:30.111Z,50.70
2023-03-06T05:50:58.048Z,50.70
2023-03-06T05:53:24.937Z,50.60
2023-03-06T05:56:03.860Z,50.50
2023-03-06T05:58:32.175Z,50.50
2023-03-06T06:00:59.285Z,50.60
2023-03-06T06:03:26.125Z,50.60
2023-03-06T06:05:52.892Z,50.70
2023-03-06T06:08:20.458Z,50.40
2023-03-06T06:10:47.180Z,50.40
2023-03-06T06:13:13.945Z,50.60
2023-03-06T06:15:40.684Z,50.60
2023-03-06T06:18:07.480Z,50.70
2023-03-06T06:20:35.388Z,50.70
2023-03-06T06:23:02.233Z,50.40
2023-03-06T06:25:28.955Z,50.70
2023-03-06T06:27:56.971Z,50.50
2023-03-06T06:30:23.897Z,50.40
2023-03-06T06:32:50.973Z,50.50
2023-03-06T06:35:17.825Z,50.80
2023-03-06T06:37:44.565Z,50.90
2023-03-06T06:40:11.864Z,51.00
2023-03-06T06:42:40.292Z,50.50
2023-03-06T06:45:09.128Z,50.90
2023-03-06T06:47:38.372Z,50.90
2023-03-06T06:50:05.786Z,51.00
2023-03-06T06:52:32.520Z,50.70
2023-03-06T06:54:59.343Z,50.60
2023-03-06T06:57:26.092Z,51.20
2023-03-06T06:59:54.115Z,50.70
2023-03-06T07:02:21.303Z,50.60
2023-03-06T07:05:02.657Z,50.70
2023-03-06T07:07:33.021Z,50.70
2023-03-06T07:09:59.803Z,50.50
2023-03-06T07:12:26.586Z,50.80
2023-03-06T07:14:53.314Z,50.90
2023-03-06T07:17:20.023Z,51.00
2023-03-06T07:19:46.767Z,50.80
2023-03-06T07:22:13.675Z,50.80
2023-03-06T07:24:40.393Z,50.90
2023-03-06T07:27:07.107Z,50.80
2023-03-06T07:29:34.504Z,50.80
2023-03-06T07:32:01.364Z,50.80
2023-03-06T07:34:28.281Z,51.10
2023-03-06T07:36:55.006Z,51.00
2023-03-06T07:39:21.685Z,51.20
2023-03-06T07:41:48.380Z,51.00
2023-03-06T07:44:15.135Z,51.00
2023-03-06T07:46:41.946Z,51.00
2023-03-06T07:49:08.812Z,50.90
2023-03-06T07:51:35.685Z,51.10
2023-03-06T07:54:02.374Z,51.00
2023-03-06T07:56:29.270Z,51.20
2023-03-06T07:58:57.055Z,51.10
2023-03-06T08:01:24.284Z,51.10
2023-03-06T08:03:51.377Z,51.00
2023-03-06T08:06:23.511Z,51.00
2023-03-06T08:08:51.816Z,51.10
2023-03-06T08:11:21.509Z,51.10
2023-03-06T08:13:49.110Z,51.30
2023-03-06T08:16:17.370Z,50.90
2023-03-06T08:18:46.263Z,51.80
2023-03-06T08:21:16.202Z,52.30
2023-03-06T08:23:43.847Z,52.00
2023-03-06T08:26:18.133Z,51.50
2023-03-06T08:28:45.471Z,51.30
2023-03-06T08:31:24.496Z,51.40
2023-03-06T08:33:51.464Z,51.20
2023-03-06T08:36:18.188Z,51.50
2023-03-06T08:38:45.079Z,51.00
2023-03-06T08:41:11.968Z,51.10
2023-03-06T08:43:38.808Z,51.20
2023-03-06T08:46:05.515Z,51.70
2023-03-06T08:48:32.279Z,50.80
2023-03-06T08:50:59.097Z,50.90
2023-03-06T08:53:40.490Z,50.70
2023-03-06T08:56:25.981Z,50.20
2023-03-06T08:58:53.803Z,50.60
2023-03-06T09:01:24.791Z,50.90
2023-03-06T09:03:55.011Z,50.80
2023-03-06T09:06:22.512Z,50.80
2023-03-06T09:08:52.236Z,50.70
2023-03-06T09:11:20.898Z,50.60
2023-03-06T09:13:47.594Z,51.00
2023-03-06T09:16:14.464Z,51.00
2023-03-06T09:18:41.265Z,51.00
2023-03-06T09:21:09.374Z,50.70
2023-03-06T09:23:39.387Z,51.20
2023-03-06T09:26:07.373Z,51.10
2023-03-06T09:28:36.710Z,51.20
2023-03-06T09:31:25.426Z,51.30
2023-03-06T09:33:52.161Z,51.30
2023-03-06T09:36:21.753Z,51.30
2023-03-06T09:38:49.982Z,51.30
2023-03-06T09:41:35.392Z,51.40
2023-03-06T09:44:08.699Z,51.40
2023-03-06T09:46:47.292Z,51.80
2023-03-06T09:49:49.538Z,52.20
2023-03-06T09:52:40.481Z,52.30
2023-03-06T09:55:22.658Z,52.20
2023-03-06T09:57:51.079Z,52.30
2023-03-06T10:00:33.277Z,52.60
2023-03-06T10:03:31.098Z,52.60
2023-03-06T10:06:10.936Z,52.40
2023-03-06T10:08:55.846Z,52.60
2023-03-06T10:11:33.004Z,52.60
2023-03-06T10:14:22.705Z,52.60
2023-03-06T10:16:49.904Z,52.90
2023-03-06T10:19:19.265Z,52.70
2023-03-06T10:22:58.513Z,52.70
2023-03-06T10:25:29.511Z,52.50
2023-03-06T10:28:15.611Z,52.30
2023-03-06T10:31:03.778Z,52.30
2023-03-06T10:34:06.074Z,52.40
2023-03-06T10:36:32.858Z,52.00
2023-03-06T10:38:59.940Z,52.20
2023-03-06T10:41:36.019Z,52.70
2023-03-06T10:44:05.922Z,52.70
2023-03-06T10:46:42.377Z,52.50
2023-03-06T10:49:15.230Z,52.70
2023-03-06T10:52:15.407Z,52.70
2023-03-06T10:54:44.403Z,53.10
2023-03-06T10:57:29.447Z,52.80
2023-03-06T11:00:19.801Z,53.10
2023-03-06T11:02:47.379Z,53.00
2023-03-06T11:05:21.117Z,52.90
2023-03-06T11:07:57.186Z,52.60
2023-03-06T11:10:24.372Z,52.50
2023-03-06T11:13:08.432Z,52.70
2023-03-06T11:15:35.522Z,52.50
2023-03-06T11:18:07.924Z,52.40
2023-03-06T11:20:52.378Z,52.40
2023-03-06T11:23:28.995Z,51.80
2023-03-06T11:26:20.686Z,51.90
2023-03-06T11:28:57.286Z,51.90
2023-03-06T11:31:35.586Z,51.30
2023-03-06T11:34:32.874Z,51.40
2023-03-06T11:37:33.657Z,51.20
2023-03-06T11:40:09.193Z,50.50
2023-03-06T11:42:42.621Z,50.50
2023-03-06T11:45:37.229Z,50.60
2023-03-06T11:48:23.498Z,50.50
2023-03-06T11:51:06.878Z,49.70
2023-03-06T11:53:37.720Z,49.40
2023-03-06T11:56:22.778Z,49.60
2023-03-06T11:59:19.701Z,49.40
2023-03-06T12:02:04.252Z,48.90
2023-03-06T12:04:53.372Z,48.70
2023-03-06T12:07:36.647Z,48.70
2023-03-06T12:10:10.658Z,48.60
2023-03-06T12:12:58.449Z,48.50
2023-03-06T12:15:30.944Z,48.60
2023-03-06T12:18:22.964Z,48.60
2023-03-06T12:21:09.929Z,48.50
2023-03-06T12:24:11.598Z,48.60
2023-03-06T12:27:03.082Z,48.10
2023-03-06T12:29:59.384Z,47.30
2023-03-06T12:32:52.809Z,47.40
2023-03-06T12:35:22.306Z,47.50
2023-03-06T12:38:04.335Z,47.10
2023-03-06T12:41:03.056Z,46.20
2023-03-06T12:44:03.473Z,45.70
2023-03-06T12:46:30.546Z,45.30
2023-03-06T12:49:23.102Z,46.10
2023-03-06T12:51:58.273Z,46.10
2023-03-06T12:54:28.460Z,46.20
2023-03-06T12:56:57.403Z,46.10
2023-03-06T12:59:43.942Z,45.90
2023-03-06T13:02:10.648Z,46.00
2023-03-06T13:04:55.594Z,45.90
2023-03-06T13:07:29.006Z,45.20
2023-03-06T13:10:04.745Z,45.70
2023-03-06T13:12:56.020Z,45.80
2023-03-06T13:15:46.190Z,45.40
2023-03-06T13:18:21.800Z,45.40
2023-03-06T13:20:53.841Z,45.10
2023-03-06T13:23:29.904Z,45.40
2023-03-06T13:25:58.445Z,45.10
2023-03-06T13:28:41.043Z,45.20
2023-03-06T13:31:18.198Z,44.70
2023-03-06T13:33:55.129Z,43.70
2023-03-06T13:36:33.495Z,43.70
2023-03-06T13:39:11.385Z,43.90
2023-03-06T13:41:38.056Z,43.90
2023-03-06T13:44:23.434Z,43.50
2023-03-06T13:47:01.561Z,43.50
2023-03-06T13:49:29.300Z,43.60
2023-03-06T13:51:56.074Z,43.50
2023-03-06T13:54:31.770Z,43.10
2023-03-06T13:57:20.040Z,42.90
2023-03-06T14:00:14.728Z,43.00
2023-03-06T14:03:15.210Z,42.70
2023-03-06T14:05:42.220Z,42.10
2023-03-06T14:08:16.897Z,42.20
2023-03-06T14:10:45.665Z,41.40
2023-03-06T14:13:35.036Z,41.40
2023-03-06T14:16:02.172Z,41.00
2023-03-06T14:18:43.832Z,41.40
2023-03-06T14:21:13.504Z,41.50
2023-03-06T14:23:43.431Z,41.30
2023-03-06T14:26:17.423Z,41.80
2023-03-06T14:28:59.184Z,40.80
2023-03-06T14:31:34.595Z,40.80
2023-03-06T14:34:08.963Z,40.50
2023-03-06T14:36:50.555Z,40.30
2023-03-06T14:39:29.315Z,40.70
2023-03-06T14:42:24.668Z,40.20
2023-03-06T14:45:19.913Z,39.10
2023-03-06T14:47:52.606Z,39.20
2023-03-06T14:50:19.493Z,38.70
2023-03-06T14:52:46.740Z,39.40
2023-03-06T14:55:22.404Z,39.40
2023-03-06T14:58:07.752Z,39.40
2023-03-06T15:00:40.764Z,38.70
2023-03-06T15:03:28.102Z,39.40
2023-03-06T15:05:55.816Z,39.50
2023-03-06T15:08:27.037Z,39.70
2023-03-06T15:10:59.829Z,39.60
2023-03-06T15:13:29.337Z,39.80
2023-03-06T15:16:24.693Z,39.70
2023-03-06T15:19:00.028Z,39.90
2023-03-06T15:21:28.935Z,40.00
2023-03-06T15:23:57.247Z,40.40
2023-03-06T15:26:33.303Z,40.60
2023-03-06T15:29:27.114Z,40.50
2023-03-06T15:32:24.938Z,40.40
2023-03-06T15:35:29.396Z,40.50
2023-03-06T15:37:57.158Z,40.90
2023-03-06T15:40:26.447Z,41.00
2023-03-06T15:42:53.295Z,41.10
2023-03-06T15:45:25.085Z,41.10
2023-03-06T15:47:53.851Z,41.50
2023-03-06T15:50:23.920Z,41.60
2023-03-06T15:52:51.377Z,41.70
2023-03-06T15:55:21.330Z,41.70
2023-03-06T15:57:49.761Z,42.30
2023-03-06T16:00:27.686Z,42.80
2023-03-06T16:02:58.836Z,42.50
2023-03-06T16:05:26.735Z,42.80
2023-03-06T16:07:53.835Z,43.00
2023-03-06T16:10:23.902Z,43.70
2023-03-06T16:13:19.287Z,43.40
2023-03-06T16:15:49.263Z,43.40
2023-03-06T16:18:18.661Z,43.60
2023-03-06T16:20:45.995Z,43.50
2023-03-06T16:23:13.069Z,43.30
2023-03-06T16:25:42.942Z,43.40
2023-03-06T16:28:14.409Z,43.50
2023-03-06T16:30:42.969Z,43.50
2023-03-06T16:33:11.827Z,43.50
2023-03-06T16:35:38.813Z,43.50
2023-03-06T16:38:05.597Z,43.70
2023-03-06T16:40:40.869Z,43.60
2023-03-06T16:43:09.258Z,43.70
2023-03-06T16:45:38.747Z,43.80
2023-03-06T16:48:06.951Z,43.60
2023-03-06T16:50:38.358Z,43.80
2023-03-06T16:53:05.947Z,43.80
2023-03-06T16:55:32.704Z,44.20
2023-03-06T16:57:59.534Z,44.20
2023-03-06T17:00:31.171Z,44.20
2023-03-06T17:02:58.169Z,44.40
2023-03-06T17:05:25.365Z,44.50
2023-03-06T17:07:52.065Z,44.30
2023-03-06T17:10:22.533Z,44.50
2023-03-06T17:12:49.642Z,44.40
2023-03-06T17:15:16.426Z,44.80
2023-03-06T17:17:43.146Z,44.70
2023-03-06T17:20:10.568Z,44.70
2023-03-06T17:22:38.675Z,44.70
2023-03-06T17:25:06.852Z,44.80
2023-03-06T17:27:34.625Z,44.90
2023-03-06T17:30:01.895Z,44.80
2023-03-06T17:32:28.819Z,44.80
2023-03-06T17:34:56.569Z,44.80
2023-03-06T17:37:23.349Z,45.00
2023-03-06T17:39:50.468Z,45.10
2023-03-06T17:42:17.219Z,45.20
2023-03-06T17:44:43.972Z,45.40
2023-03-06T17:47:10.858Z,45.40
2023-03-06T17:49:37.611Z,45.50
2023-03-06T17:52:05.689Z,45.40
2023-03-06T18:05:21.754Z,45.50
2023-03-06T18:07:48.470Z,45.40
2023-03-06T18:10:15.402Z,45.50
2023-03-06T18:12:42.155Z,45.60
2023-03-06T18:15:09.280Z,45.50
2023-03-06T18:17:36.052Z,45.40
2023-03-06T18:20:02.891Z,45.40
2023-03-06T18:22:29.658Z,45.70
2023-03-06T18:24:56.370Z,45.50
2023-03-06T18:27:23.242Z,45.50
2023-03-06T18:29:52.200Z,45.80
2023-03-06T18:32:19.186Z,45.90
2023-03-06T18:34:46.248Z,45.70
2023-03-06T18:37:12.989Z,45.80
2023-03-06T18:39:39.757Z,45.70
2023-03-06T18:42:06.723Z,45.90
2023-03-06T18:44:33.434Z,46.10
2023-03-06T18:47:00.221Z,46.00
2023-03-06T18:49:27.321Z,45.80
2023-03-06T18:51:54.092Z,45.90
2023-03-06T18:54:20.863Z,46.70
2023-03-06T18:56:47.601Z,46.10
2023-03-06T18:59:18.494Z,46.20
2023-03-06T19:01:46.314Z,46.20
2023-03-06T19:04:13.476Z,46.30
2023-03-06T19:06:40.604Z,46.50
2023-03-06T19:09:07.644Z,46.30
2023-03-06T19:11:34.597Z,46.30
2023-03-06T19:14:01.778Z,46.40
2023-03-06T19:16:30.428Z,46.30
2023-03-06T19:18:57.747Z,46.10
2023-03-06T19:21:26.768Z,46.20
2023-03-06T19:23:54.104Z,46.20
2023-03-06T19:26:21.496Z,46.50
2023-03-06T19:28:49.032Z,46.30
2023-03-06T19:31:19.596Z,46.20
2023-03-06T19:33:48.115Z,46.40
2023-03-06T19:36:16.679Z,46.40
2023-03-06T19:38:43.705Z,46.50
2023-03-06T19:41:15.285Z,46.30
2023-03-06T19:43:43.087Z,46.50
2023-03-06T19:46:14.123Z,46.50
2023-03-06T19:48:43.954Z,46.70
2023-03-06T19:51:10.978Z,46.70
2023-03-06T19:53:39.595Z,47.00
2023-03-06T19:56:08.901Z,46.80
2023-03-06T19:58:35.871Z,47.00
2023-03-06T20:01:07.610Z,46.90
2023-03-06T20:03:34.478Z,47.10
2023-03-06T20:06:01.556Z,46.90
2023-03-06T20:08:28.399Z,47.10
2023-03-06T20:10:55.165Z,47.10
2023-03-06T20:13:21.901Z,46.80
2023-03-06T20:15:48.670Z,46.80
2023-03-06T20:18:15.472Z,46.70
2023-03-06T20:20:42.215Z,47.00
2023-03-06T20:23:09.092Z,46.80
2023-03-06T20:25:36.770Z,47.40
2023-03-06T20:28:04.719Z,47.50
2023-03-06T20:30:37.731Z,47.20
2023-03-06T20:33:05.440Z,47.40
2023-03-06T20:35:32.273Z,47.20
2023-03-06T20:37:59.840Z,47.40
2023-03-06T20:40:26.807Z,47.20
2023-03-06T20:42:53.828Z,47.40
2023-03-06T20:45:20.572Z,47.20
2023-03-06T20:47:47.366Z,47.10
2023-03-06T20:50:15.240Z,47.20
2023-03-06T20:52:42.096Z,47.20
2023-03-06T20:55:09.673Z,47.10
2023-03-06T20:57:36.449Z,47.30
2023-03-06T21:00:04.988Z,47.10
2023-03-06T21:02:31.786Z,47.40
2023-03-06T21:05:00.042Z,47.70
2023-03-06T21:07:27.078Z,47.80
2023-03-06T21:09:53.884Z,47.70
2023-03-06T21:12:20.666Z,47.80
2023-03-06T21:14:47.332Z,47.70
2023-03-06T21:17:14.037Z,47.90
2023-03-06T21:19:41.460Z,48.00
2023-03-06T21:22:08.415Z,48.00
2023-03-06T21:24:36.010Z,47.90
2023-03-06T21:27:03.613Z,48.00
2023-03-06T21:29:30.793Z,48.10
2023-03-06T21:31:57.476Z,48.10
2023-03-06T21:34:24.323Z,48.30
2023-03-06T21:36:51.265Z,48.20
2023-03-06T21:39:17.971Z,48.30
2023-03-06T21:41:44.713Z,48.40
2023-03-06T21:44:11.368Z,48.60
2023-03-06T21:46:38.190Z,48.70
2023-03-06T21:49:05.481Z,48.60
2023-03-06T21:51:32.591Z,48.90
2023-03-06T21:53:59.302Z,48.90
2023-03-06T21:56:28.198Z,48.90
2023-03-06T21:58:56.105Z,48.80
2023-03-06T22:01:28.382Z,49.00
2023-03-06T22:03:55.419Z,49.00
2023-03-06T22:06:25.355Z,49.00
2023-03-06T22:08:52.369Z,49.10
2023-03-06T22:11:21.841Z,49.30
2023-03-06T22:13:49.412Z,49.40
2023-03-06T22:16:17.306Z,49.60
2023-03-06T22:18:45.539Z,49.60
2023-03-06T22:21:14.963Z,49.70
2023-03-06T22:23:41.736Z,49.60
2023-03-06T22:26:12.301Z,49.60
2023-03-06T22:28:39.840Z,49.70
2023-03-06T22:31:15.536Z,49.80
2023-03-06T22:33:42.807Z,50.00
2023-03-06T22:36:15.122Z,49.90
2023-03-06T22:38:43.835Z,50.10
2023-03-06T22:41:14.899Z,49.80
2023-03-06T22:43:42.338Z,50.10
2023-03-06T22:46:15.145Z,50.10
2023-03-06T22:48:42.767Z,50.10
2023-03-06T22:51:12.556Z,50.20
2023-03-06T22:53:39.772Z,50.50
2023-03-06T22:56:09.376Z,51.00
2023-03-06T22:58:37.440Z,50.80
2023-03-06T23:01:25.225Z,50.80
2023-03-06T23:03:54.610Z,50.50
2023-03-06T23:06:25.553Z,50.50
2023-03-06T23:08:55.449Z,50.40
2023-03-06T23:11:22.972Z,50.50
2023-03-06T23:13:49.862Z,50.40
2023-03-06T23:16:16.577Z,50.70
2023-03-06T23:18:43.244Z,51.30
2023-03-06T23:21:12.478Z,50.90
2023-03-06T23:23:39.713Z,51.00
2023-03-06T23:26:07.908Z,50.90
2023-03-06T23:28:37.921Z,50.80
2023-03-06T23:31:13.142Z,50.90
2023-03-06T23:33:40.277Z,50.80
2023-03-06T23:36:09.580Z,50.90
2023-03-06T23:38:36.721Z,51.00
2023-03-06T23:41:16.122Z,51.00
2023-03-06T23:43:43.191Z,50.90
2023-03-06T23:46:10.234Z,51.10
2023-03-06T23:48:39.315Z,51.20
2023-03-06T23:51:14.442Z,51.10
2023-03-06T23:53:41.590Z,51.20
2023-03-06T23:56:09.612Z,51.20
2023-03-06T23:58:36.394Z,51.60
